sensor_id;sensor_type;location;lat;lon;timestamp;P1;durP1;ratioP1;P2;durP2;ratioP2
12567;SDS011;6349;50.904;6.136;2022-12-18T00:01:23;12.47;;;7.40;;
12567;SDS011;6349;50.904;6.136;2022-12-18T00:03:26;11.63;;;7.20;;
12567;SDS011;6349;50.904;6.136;2022-12-18T00:05:26;9.40;;;6.90;;
12567;SDS011;6349;50.904;6.136;2022-12-18T00:07:28;10.50;;;7.47;;
12567;SDS011;6349;50.904;6.136;2022-12-18T00:09:28;12.17;;;7.17;;
12567;SDS011;6349;50.904;6.136;2022-12-18T00:11:29;10.23;;;6.70;;
12567;SDS011;6349;50.904;6.136;2022-12-18T00:13:30;10.70;;;7.17;;
12567;SDS011;6349;50.904;6.136;2022-12-18T00:15:33;9.47;;;7.10;;
12567;SDS011;6349;50.904;6.136;2022-12-18T00:17:34;10.13;;;6.87;;
12567;SDS011;6349;50.904;6.136;2022-12-18T00:19:35;12.67;;;7.60;;
12567;SDS011;6349;50.904;6.136;2022-12-18T00:21:35;9.83;;;6.90;;
12567;SDS011;6349;50.904;6.136;2022-12-18T00:23:36;10.17;;;7.27;;
12567;SDS011;6349;50.904;6.136;2022-12-18T00:25:38;9.70;;;6.90;;
12567;SDS011;6349;50.904;6.136;2022-12-18T00:27:38;10.20;;;7.17;;
12567;SDS011;6349;50.904;6.136;2022-12-18T00:29:39;10.33;;;6.90;;
12567;SDS011;6349;50.904;6.136;2022-12-18T00:31:39;10.30;;;6.83;;
12567;SDS011;6349;50.904;6.136;2022-12-18T00:33:41;9.47;;;6.70;;
12567;SDS011;6349;50.904;6.136;2022-12-18T00:35:43;9.97;;;6.63;;
12567;SDS011;6349;50.904;6.136;2022-12-18T00:37:43;8.23;;;6.43;;
12567;SDS011;6349;50.904;6.136;2022-12-18T00:39:44;9.93;;;6.60;;
12567;SDS011;6349;50.904;6.136;2022-12-18T00:41:44;8.87;;;6.67;;
12567;SDS011;6349;50.904;6.136;2022-12-18T00:44:05;10.20;;;6.50;;
12567;SDS011;6349;50.904;6.136;2022-12-18T00:46:07;10.03;;;6.97;;
12567;SDS011;6349;50.904;6.136;2022-12-18T00:48:07;11.00;;;7.07;;
12567;SDS011;6349;50.904;6.136;2022-12-18T00:50:08;9.60;;;6.40;;
12567;SDS011;6349;50.904;6.136;2022-12-18T00:52:09;9.83;;;6.93;;
12567;SDS011;6349;50.904;6.136;2022-12-18T00:54:10;9.97;;;6.43;;
12567;SDS011;6349;50.904;6.136;2022-12-18T00:56:10;9.13;;;6.50;;
12567;SDS011;6349;50.904;6.136;2022-12-18T00:58:12;10.93;;;6.20;;
12567;SDS011;6349;50.904;6.136;2022-12-18T01:00:14;9.37;;;6.67;;
12567;SDS011;6349;50.904;6.136;2022-12-18T01:02:15;11.60;;;6.90;;
12567;SDS011;6349;50.904;6.136;2022-12-18T01:04:15;10.63;;;6.77;;
12567;SDS011;6349;50.904;6.136;2022-12-18T01:06:16;9.03;;;6.27;;
12567;SDS011;6349;50.904;6.136;2022-12-18T01:08:17;10.30;;;6.50;;
12567;SDS011;6349;50.904;6.136;2022-12-18T01:10:17;11.30;;;6.40;;
12567;SDS011;6349;50.904;6.136;2022-12-18T01:12:18;8.00;;;6.23;;
12567;SDS011;6349;50.904;6.136;2022-12-18T01:14:19;10.50;;;6.50;;
12567;SDS011;6349;50.904;6.136;2022-12-18T01:16:21;10.97;;;6.40;;
12567;SDS011;6349;50.904;6.136;2022-12-18T01:18:22;10.43;;;6.27;;
12567;SDS011;6349;50.904;6.136;2022-12-18T01:20:23;9.93;;;6.37;;
12567;SDS011;6349;50.904;6.136;2022-12-18T01:22:24;9.97;;;6.43;;
12567;SDS011;6349;50.904;6.136;2022-12-18T01:24:24;9.50;;;6.60;;
12567;SDS011;6349;50.904;6.136;2022-12-18T01:26:26;8.83;;;6.57;;
12567;SDS011;6349;50.904;6.136;2022-12-18T01:28:29;8.77;;;6.27;;
12567;SDS011;6349;50.904;6.136;2022-12-18T01:30:29;10.63;;;6.77;;
12567;SDS011;6349;50.904;6.136;2022-12-18T01:32:30;10.13;;;6.73;;
12567;SDS011;6349;50.904;6.136;2022-12-18T01:34:31;10.83;;;6.23;;
12567;SDS011;6349;50.904;6.136;2022-12-18T01:36:33;9.00;;;6.43;;
12567;SDS011;6349;50.904;6.136;2022-12-18T01:38:35;9.37;;;5.73;;
12567;SDS011;6349;50.904;6.136;2022-12-18T01:40:36;7.27;;;6.07;;
12567;SDS011;6349;50.904;6.136;2022-12-18T01:42:37;9.00;;;6.27;;
12567;SDS011;6349;50.904;6.136;2022-12-18T01:44:50;9.60;;;6.60;;
12567;SDS011;6349;50.904;6.136;2022-12-18T01:47:15;10.97;;;6.00;;
12567;SDS011;6349;50.904;6.136;2022-12-18T01:49:21;7.70;;;5.90;;
12567;SDS011;6349;50.904;6.136;2022-12-18T01:51:22;8.83;;;6.60;;
12567;SDS011;6349;50.904;6.136;2022-12-18T01:53:23;9.30;;;5.93;;
12567;SDS011;6349;50.904;6.136;2022-12-18T01:55:24;8.37;;;6.07;;
12567;SDS011;6349;50.904;6.136;2022-12-18T01:57:29;9.20;;;6.30;;
12567;SDS011;6349;50.904;6.136;2022-12-18T01:59:29;8.57;;;6.00;;
12567;SDS011;6349;50.904;6.136;2022-12-18T02:01:32;8.40;;;5.27;;
12567;SDS011;6349;50.904;6.136;2022-12-18T02:03:33;8.47;;;5.43;;
12567;SDS011;6349;50.904;6.136;2022-12-18T02:05:37;8.47;;;6.00;;
12567;SDS011;6349;50.904;6.136;2022-12-18T02:10:27;9.73;;;5.63;;
12567;SDS011;6349;50.904;6.136;2022-12-18T02:12:41;8.23;;;5.50;;
12567;SDS011;6349;50.904;6.136;2022-12-18T02:14:49;8.27;;;5.37;;
12567;SDS011;6349;50.904;6.136;2022-12-18T02:17:17;8.17;;;5.53;;
12567;SDS011;6349;50.904;6.136;2022-12-18T02:19:27;7.80;;;5.67;;
12567;SDS011;6349;50.904;6.136;2022-12-18T02:24:35;7.90;;;5.03;;
12567;SDS011;6349;50.904;6.136;2022-12-18T02:26:46;7.67;;;5.10;;
12567;SDS011;6349;50.904;6.136;2022-12-18T02:28:55;7.80;;;5.47;;
12567;SDS011;6349;50.904;6.136;2022-12-18T02:31:01;9.67;;;5.03;;
12567;SDS011;6349;50.904;6.136;2022-12-18T02:33:04;7.70;;;5.67;;
12567;SDS011;6349;50.904;6.136;2022-12-18T02:35:10;8.90;;;5.17;;
12567;SDS011;6349;50.904;6.136;2022-12-18T02:37:16;6.87;;;4.90;;
12567;SDS011;6349;50.904;6.136;2022-12-18T02:39:18;6.77;;;5.00;;
12567;SDS011;6349;50.904;6.136;2022-12-18T02:41:23;9.20;;;5.57;;
12567;SDS011;6349;50.904;6.136;2022-12-18T02:43:25;6.60;;;4.90;;
12567;SDS011;6349;50.904;6.136;2022-12-18T02:45:26;7.73;;;5.00;;
12567;SDS011;6349;50.904;6.136;2022-12-18T02:47:28;7.37;;;5.30;;
12567;SDS011;6349;50.904;6.136;2022-12-18T02:52:12;6.10;;;4.97;;
12567;SDS011;6349;50.904;6.136;2022-12-18T02:54:27;8.63;;;5.13;;
12567;SDS011;6349;50.904;6.136;2022-12-18T02:56:38;8.10;;;4.93;;
12567;SDS011;6349;50.904;6.136;2022-12-18T02:58:54;8.37;;;4.93;;
12567;SDS011;6349;50.904;6.136;2022-12-18T03:01:02;6.77;;;4.67;;
12567;SDS011;6349;50.904;6.136;2022-12-18T03:03:27;7.83;;;5.17;;
12567;SDS011;6349;50.904;6.136;2022-12-18T03:05:36;7.77;;;5.20;;
12567;SDS011;6349;50.904;6.136;2022-12-18T03:07:56;8.03;;;5.20;;
12567;SDS011;6349;50.904;6.136;2022-12-18T03:10:16;6.73;;;5.37;;
12567;SDS011;6349;50.904;6.136;2022-12-18T03:12:24;7.67;;;4.97;;
12567;SDS011;6349;50.904;6.136;2022-12-18T03:14:32;6.43;;;4.87;;
12567;SDS011;6349;50.904;6.136;2022-12-18T03:16:37;8.07;;;4.90;;
12567;SDS011;6349;50.904;6.136;2022-12-18T03:18:45;7.70;;;5.17;;
12567;SDS011;6349;50.904;6.136;2022-12-18T03:20:51;6.83;;;5.03;;
12567;SDS011;6349;50.904;6.136;2022-12-18T03:22:57;7.53;;;4.97;;
12567;SDS011;6349;50.904;6.136;2022-12-18T03:25:05;6.97;;;4.63;;
12567;SDS011;6349;50.904;6.136;2022-12-18T03:27:10;7.47;;;5.30;;
12567;SDS011;6349;50.904;6.136;2022-12-18T03:29:17;5.90;;;4.90;;
12567;SDS011;6349;50.904;6.136;2022-12-18T03:31:22;6.77;;;4.80;;
12567;SDS011;6349;50.904;6.136;2022-12-18T03:33:27;7.27;;;5.00;;
12567;SDS011;6349;50.904;6.136;2022-12-18T03:35:37;6.43;;;4.80;;
12567;SDS011;6349;50.904;6.136;2022-12-18T03:37:41;7.53;;;5.10;;
12567;SDS011;6349;50.904;6.136;2022-12-18T03:39:42;8.10;;;5.43;;
12567;SDS011;6349;50.904;6.136;2022-12-18T03:41:44;6.90;;;4.90;;
12567;SDS011;6349;50.904;6.136;2022-12-18T03:43:53;7.40;;;4.93;;
12567;SDS011;6349;50.904;6.136;2022-12-18T03:46:02;7.83;;;5.23;;
12567;SDS011;6349;50.904;6.136;2022-12-18T03:48:28;7.27;;;5.43;;
12567;SDS011;6349;50.904;6.136;2022-12-18T03:50:49;7.10;;;5.10;;
12567;SDS011;6349;50.904;6.136;2022-12-18T03:55:52;8.63;;;5.20;;
12567;SDS011;6349;50.904;6.136;2022-12-18T03:57:53;9.10;;;6.03;;
12567;SDS011;6349;50.904;6.136;2022-12-18T03:59:55;6.83;;;5.03;;
12567;SDS011;6349;50.904;6.136;2022-12-18T04:01:59;8.20;;;5.50;;
12567;SDS011;6349;50.904;6.136;2022-12-18T04:04:03;7.10;;;5.10;;
12567;SDS011;6349;50.904;6.136;2022-12-18T04:06:05;7.60;;;5.23;;
12567;SDS011;6349;50.904;6.136;2022-12-18T04:08:07;8.00;;;5.30;;
12567;SDS011;6349;50.904;6.136;2022-12-18T04:10:08;7.37;;;4.80;;
12567;SDS011;6349;50.904;6.136;2022-12-18T04:12:12;8.07;;;5.37;;
12567;SDS011;6349;50.904;6.136;2022-12-18T04:14:13;7.23;;;5.23;;
12567;SDS011;6349;50.904;6.136;2022-12-18T04:16:14;8.10;;;5.47;;
12567;SDS011;6349;50.904;6.136;2022-12-18T04:18:14;7.37;;;4.80;;
12567;SDS011;6349;50.904;6.136;2022-12-18T04:20:16;7.57;;;5.40;;
12567;SDS011;6349;50.904;6.136;2022-12-18T04:22:17;8.20;;;5.17;;
12567;SDS011;6349;50.904;6.136;2022-12-18T04:24:18;10.47;;;5.47;;
12567;SDS011;6349;50.904;6.136;2022-12-18T04:26:18;7.80;;;5.47;;
12567;SDS011;6349;50.904;6.136;2022-12-18T04:28:19;7.97;;;5.83;;
12567;SDS011;6349;50.904;6.136;2022-12-18T04:30:20;8.17;;;5.90;;
12567;SDS011;6349;50.904;6.136;2022-12-18T04:32:21;9.13;;;5.70;;
12567;SDS011;6349;50.904;6.136;2022-12-18T04:34:21;7.80;;;5.80;;
12567;SDS011;6349;50.904;6.136;2022-12-18T04:36:22;7.30;;;5.50;;
12567;SDS011;6349;50.904;6.136;2022-12-18T04:38:26;7.83;;;5.57;;
12567;SDS011;6349;50.904;6.136;2022-12-18T04:40:26;7.70;;;5.93;;
12567;SDS011;6349;50.904;6.136;2022-12-18T04:42:27;7.90;;;5.67;;
12567;SDS011;6349;50.904;6.136;2022-12-18T04:44:28;8.83;;;5.87;;
12567;SDS011;6349;50.904;6.136;2022-12-18T04:46:28;7.53;;;5.60;;
12567;SDS011;6349;50.904;6.136;2022-12-18T04:48:29;8.87;;;6.13;;
12567;SDS011;6349;50.904;6.136;2022-12-18T04:50:30;7.90;;;5.47;;
12567;SDS011;6349;50.904;6.136;2022-12-18T04:52:31;8.43;;;5.50;;
12567;SDS011;6349;50.904;6.136;2022-12-18T04:54:31;8.97;;;5.73;;
12567;SDS011;6349;50.904;6.136;2022-12-18T04:56:32;9.07;;;5.80;;
12567;SDS011;6349;50.904;6.136;2022-12-18T04:58:32;8.37;;;6.27;;
12567;SDS011;6349;50.904;6.136;2022-12-18T05:00:33;8.37;;;5.73;;
12567;SDS011;6349;50.904;6.136;2022-12-18T05:02:33;8.47;;;6.20;;
12567;SDS011;6349;50.904;6.136;2022-12-18T05:04:34;8.07;;;5.27;;
12567;SDS011;6349;50.904;6.136;2022-12-18T05:06:35;7.33;;;5.33;;
12567;SDS011;6349;50.904;6.136;2022-12-18T05:08:35;8.43;;;5.80;;
12567;SDS011;6349;50.904;6.136;2022-12-18T05:10:36;7.30;;;5.37;;
12567;SDS011;6349;50.904;6.136;2022-12-18T05:12:37;7.97;;;5.93;;
12567;SDS011;6349;50.904;6.136;2022-12-18T05:14:57;8.20;;;5.43;;
12567;SDS011;6349;50.904;6.136;2022-12-18T05:16:58;7.00;;;5.23;;
12567;SDS011;6349;50.904;6.136;2022-12-18T05:18:58;8.53;;;5.33;;
12567;SDS011;6349;50.904;6.136;2022-12-18T05:20:59;8.73;;;5.40;;
12567;SDS011;6349;50.904;6.136;2022-12-18T05:23:00;8.20;;;5.67;;
12567;SDS011;6349;50.904;6.136;2022-12-18T05:25:01;9.90;;;5.67;;
12567;SDS011;6349;50.904;6.136;2022-12-18T05:27:01;6.63;;;4.80;;
12567;SDS011;6349;50.904;6.136;2022-12-18T05:29:02;7.23;;;5.40;;
12567;SDS011;6349;50.904;6.136;2022-12-18T05:31:03;7.87;;;5.63;;
12567;SDS011;6349;50.904;6.136;2022-12-18T05:33:04;8.97;;;5.57;;
12567;SDS011;6349;50.904;6.136;2022-12-18T05:35:05;7.90;;;5.50;;
12567;SDS011;6349;50.904;6.136;2022-12-18T05:37:08;7.10;;;5.40;;
12567;SDS011;6349;50.904;6.136;2022-12-18T05:39:08;7.13;;;5.40;;
12567;SDS011;6349;50.904;6.136;2022-12-18T05:41:09;8.47;;;5.47;;
12567;SDS011;6349;50.904;6.136;2022-12-18T05:43:10;8.70;;;5.90;;
12567;SDS011;6349;50.904;6.136;2022-12-18T05:45:10;7.43;;;5.97;;
12567;SDS011;6349;50.904;6.136;2022-12-18T05:47:11;8.47;;;5.93;;
12567;SDS011;6349;50.904;6.136;2022-12-18T05:49:11;8.43;;;5.90;;
12567;SDS011;6349;50.904;6.136;2022-12-18T05:51:13;8.53;;;5.93;;
12567;SDS011;6349;50.904;6.136;2022-12-18T05:53:16;8.63;;;5.90;;
12567;SDS011;6349;50.904;6.136;2022-12-18T05:55:19;6.93;;;5.20;;
12567;SDS011;6349;50.904;6.136;2022-12-18T05:57:19;8.03;;;5.83;;
12567;SDS011;6349;50.904;6.136;2022-12-18T05:59:20;8.10;;;5.60;;
12567;SDS011;6349;50.904;6.136;2022-12-18T06:01:23;7.20;;;5.60;;
12567;SDS011;6349;50.904;6.136;2022-12-18T06:03:25;7.37;;;5.60;;
12567;SDS011;6349;50.904;6.136;2022-12-18T06:05:25;8.30;;;6.17;;
12567;SDS011;6349;50.904;6.136;2022-12-18T06:07:26;9.50;;;5.93;;
12567;SDS011;6349;50.904;6.136;2022-12-18T06:09:27;9.57;;;5.90;;
12567;SDS011;6349;50.904;6.136;2022-12-18T06:11:29;8.53;;;5.87;;
12567;SDS011;6349;50.904;6.136;2022-12-18T06:13:29;8.07;;;5.97;;
12567;SDS011;6349;50.904;6.136;2022-12-18T06:15:30;6.93;;;5.37;;
12567;SDS011;6349;50.904;6.136;2022-12-18T06:17:31;7.60;;;5.40;;
12567;SDS011;6349;50.904;6.136;2022-12-18T06:19:32;7.67;;;5.60;;
12567;SDS011;6349;50.904;6.136;2022-12-18T06:21:33;7.00;;;5.77;;
12567;SDS011;6349;50.904;6.136;2022-12-18T06:23:34;7.67;;;5.87;;
12567;SDS011;6349;50.904;6.136;2022-12-18T06:25:37;7.50;;;5.90;;
12567;SDS011;6349;50.904;6.136;2022-12-18T06:27:38;8.07;;;5.90;;
12567;SDS011;6349;50.904;6.136;2022-12-18T06:29:39;8.87;;;5.70;;
12567;SDS011;6349;50.904;6.136;2022-12-18T06:31:39;9.40;;;6.30;;
12567;SDS011;6349;50.904;6.136;2022-12-18T06:33:40;10.83;;;6.50;;
12567;SDS011;6349;50.904;6.136;2022-12-18T06:35:41;8.27;;;6.17;;
12567;SDS011;6349;50.904;6.136;2022-12-18T06:37:41;8.87;;;6.13;;
12567;SDS011;6349;50.904;6.136;2022-12-18T06:39:42;8.90;;;6.63;;
12567;SDS011;6349;50.904;6.136;2022-12-18T06:41:43;9.40;;;6.37;;
12567;SDS011;6349;50.904;6.136;2022-12-18T06:43:44;9.27;;;6.10;;
12567;SDS011;6349;50.904;6.136;2022-12-18T06:45:45;9.27;;;6.43;;
12567;SDS011;6349;50.904;6.136;2022-12-18T06:47:49;8.73;;;6.03;;
12567;SDS011;6349;50.904;6.136;2022-12-18T06:49:50;7.60;;;5.90;;
12567;SDS011;6349;50.904;6.136;2022-12-18T06:51:50;8.80;;;6.33;;
12567;SDS011;6349;50.904;6.136;2022-12-18T06:53:51;7.97;;;6.27;;
12567;SDS011;6349;50.904;6.136;2022-12-18T06:55:52;9.57;;;6.73;;
12567;SDS011;6349;50.904;6.136;2022-12-18T06:57:53;8.97;;;6.23;;
12567;SDS011;6349;50.904;6.136;2022-12-18T06:59:53;8.73;;;6.07;;
12567;SDS011;6349;50.904;6.136;2022-12-18T07:01:54;9.23;;;6.47;;
12567;SDS011;6349;50.904;6.136;2022-12-18T07:03:55;8.20;;;5.83;;
12567;SDS011;6349;50.904;6.136;2022-12-18T07:05:57;9.13;;;6.60;;
12567;SDS011;6349;50.904;6.136;2022-12-18T07:07:58;9.43;;;6.23;;
12567;SDS011;6349;50.904;6.136;2022-12-18T07:09:58;9.43;;;6.43;;
12567;SDS011;6349;50.904;6.136;2022-12-18T07:11:59;8.77;;;6.47;;
12567;SDS011;6349;50.904;6.136;2022-12-18T07:13:59;9.40;;;6.13;;
12567;SDS011;6349;50.904;6.136;2022-12-18T07:16:16;9.77;;;6.63;;
12567;SDS011;6349;50.904;6.136;2022-12-18T07:18:18;8.10;;;6.17;;
12567;SDS011;6349;50.904;6.136;2022-12-18T07:20:18;9.27;;;6.43;;
12567;SDS011;6349;50.904;6.136;2022-12-18T07:22:19;9.10;;;6.27;;
12567;SDS011;6349;50.904;6.136;2022-12-18T07:24:19;8.10;;;5.97;;
12567;SDS011;6349;50.904;6.136;2022-12-18T07:26:20;9.03;;;5.83;;
12567;SDS011;6349;50.904;6.136;2022-12-18T07:28:22;9.57;;;6.63;;
12567;SDS011;6349;50.904;6.136;2022-12-18T07:30:23;9.03;;;6.27;;
12567;SDS011;6349;50.904;6.136;2022-12-18T07:32:24;8.63;;;6.13;;
12567;SDS011;6349;50.904;6.136;2022-12-18T07:34:24;10.30;;;6.77;;
12567;SDS011;6349;50.904;6.136;2022-12-18T07:36:25;8.43;;;6.33;;
12567;SDS011;6349;50.904;6.136;2022-12-18T07:38:25;9.53;;;6.93;;
12567;SDS011;6349;50.904;6.136;2022-12-18T07:40:26;10.53;;;6.73;;
12567;SDS011;6349;50.904;6.136;2022-12-18T07:42:27;8.90;;;6.10;;
12567;SDS011;6349;50.904;6.136;2022-12-18T07:44:30;9.03;;;6.17;;
12567;SDS011;6349;50.904;6.136;2022-12-18T07:46:31;9.30;;;6.23;;
12567;SDS011;6349;50.904;6.136;2022-12-18T07:48:31;9.43;;;7.03;;
12567;SDS011;6349;50.904;6.136;2022-12-18T07:50:32;8.97;;;6.40;;
12567;SDS011;6349;50.904;6.136;2022-12-18T07:52:33;9.77;;;6.90;;
12567;SDS011;6349;50.904;6.136;2022-12-18T07:54:33;8.87;;;6.50;;
12567;SDS011;6349;50.904;6.136;2022-12-18T07:56:34;9.10;;;6.80;;
12567;SDS011;6349;50.904;6.136;2022-12-18T07:58:35;9.83;;;6.73;;
12567;SDS011;6349;50.904;6.136;2022-12-18T08:00:36;8.47;;;6.37;;
12567;SDS011;6349;50.904;6.136;2022-12-18T08:02:37;9.50;;;6.60;;
12567;SDS011;6349;50.904;6.136;2022-12-18T08:04:37;8.17;;;6.20;;
12567;SDS011;6349;50.904;6.136;2022-12-18T08:06:38;9.57;;;6.93;;
12567;SDS011;6349;50.904;6.136;2022-12-18T08:08:38;11.03;;;7.30;;
12567;SDS011;6349;50.904;6.136;2022-12-18T08:10:41;9.30;;;6.83;;
12567;SDS011;6349;50.904;6.136;2022-12-18T08:12:41;8.50;;;6.67;;
12567;SDS011;6349;50.904;6.136;2022-12-18T08:14:42;10.60;;;7.10;;
12567;SDS011;6349;50.904;6.136;2022-12-18T08:16:43;10.23;;;6.87;;
12567;SDS011;6349;50.904;6.136;2022-12-18T08:18:43;9.47;;;6.60;;
12567;SDS011;6349;50.904;6.136;2022-12-18T08:20:44;9.67;;;6.63;;
12567;SDS011;6349;50.904;6.136;2022-12-18T08:22:44;9.10;;;6.80;;
12567;SDS011;6349;50.904;6.136;2022-12-18T08:24:45;10.00;;;6.77;;
12567;SDS011;6349;50.904;6.136;2022-12-18T08:26:45;8.97;;;6.43;;
12567;SDS011;6349;50.904;6.136;2022-12-18T08:28:46;9.03;;;6.70;;
12567;SDS011;6349;50.904;6.136;2022-12-18T08:30:50;8.90;;;6.63;;
12567;SDS011;6349;50.904;6.136;2022-12-18T08:32:52;9.07;;;6.70;;
12567;SDS011;6349;50.904;6.136;2022-12-18T08:34:53;10.40;;;6.90;;
12567;SDS011;6349;50.904;6.136;2022-12-18T08:36:54;11.07;;;6.97;;
12567;SDS011;6349;50.904;6.136;2022-12-18T08:38:54;8.33;;;6.80;;
12567;SDS011;6349;50.904;6.136;2022-12-18T08:40:59;10.23;;;6.60;;
12567;SDS011;6349;50.904;6.136;2022-12-18T08:43:01;8.97;;;6.73;;
12567;SDS011;6349;50.904;6.136;2022-12-18T08:45:21;11.70;;;6.70;;
12567;SDS011;6349;50.904;6.136;2022-12-18T08:47:22;10.33;;;6.40;;
12567;SDS011;6349;50.904;6.136;2022-12-18T08:49:23;10.17;;;6.63;;
12567;SDS011;6349;50.904;6.136;2022-12-18T08:51:23;10.07;;;7.07;;
12567;SDS011;6349;50.904;6.136;2022-12-18T08:53:24;8.07;;;6.27;;
12567;SDS011;6349;50.904;6.136;2022-12-18T08:55:25;9.70;;;7.07;;
12567;SDS011;6349;50.904;6.136;2022-12-18T08:57:26;10.20;;;6.63;;
12567;SDS011;6349;50.904;6.136;2022-12-18T08:59:27;9.50;;;6.90;;
12567;SDS011;6349;50.904;6.136;2022-12-18T09:01:27;8.77;;;6.83;;
12567;SDS011;6349;50.904;6.136;2022-12-18T09:03:28;8.60;;;6.67;;
12567;SDS011;6349;50.904;6.136;2022-12-18T09:05:29;10.60;;;7.50;;
12567;SDS011;6349;50.904;6.136;2022-12-18T09:07:30;8.97;;;6.57;;
12567;SDS011;6349;50.904;6.136;2022-12-18T09:09:31;8.07;;;6.43;;
12567;SDS011;6349;50.904;6.136;2022-12-18T09:11:32;9.83;;;6.83;;
12567;SDS011;6349;50.904;6.136;2022-12-18T09:13:33;8.27;;;6.10;;
12567;SDS011;6349;50.904;6.136;2022-12-18T09:15:33;8.93;;;6.97;;
12567;SDS011;6349;50.904;6.136;2022-12-18T09:17:34;8.77;;;6.93;;
12567;SDS011;6349;50.904;6.136;2022-12-18T09:19:34;9.27;;;7.27;;
12567;SDS011;6349;50.904;6.136;2022-12-18T09:21:37;9.13;;;6.43;;
12567;SDS011;6349;50.904;6.136;2022-12-18T09:23:39;9.83;;;7.87;;
12567;SDS011;6349;50.904;6.136;2022-12-18T09:25:40;10.70;;;7.37;;
12567;SDS011;6349;50.904;6.136;2022-12-18T09:27:40;10.00;;;7.03;;
12567;SDS011;6349;50.904;6.136;2022-12-18T09:29:41;10.37;;;7.00;;
12567;SDS011;6349;50.904;6.136;2022-12-18T09:31:42;8.73;;;6.90;;
12567;SDS011;6349;50.904;6.136;2022-12-18T09:33:42;9.50;;;6.70;;
12567;SDS011;6349;50.904;6.136;2022-12-18T09:35:45;10.73;;;7.47;;
12567;SDS011;6349;50.904;6.136;2022-12-18T09:37:46;9.77;;;6.90;;
12567;SDS011;6349;50.904;6.136;2022-12-18T09:39:46;9.33;;;7.03;;
12567;SDS011;6349;50.904;6.136;2022-12-18T09:41:51;10.30;;;7.13;;
12567;SDS011;6349;50.904;6.136;2022-12-18T09:43:54;11.13;;;7.47;;
12567;SDS011;6349;50.904;6.136;2022-12-18T09:46:02;10.10;;;7.23;;
12567;SDS011;6349;50.904;6.136;2022-12-18T09:48:08;10.97;;;7.10;;
12567;SDS011;6349;50.904;6.136;2022-12-18T09:50:20;9.60;;;7.00;;
12567;SDS011;6349;50.904;6.136;2022-12-18T09:52:43;9.13;;;7.07;;
12567;SDS011;6349;50.904;6.136;2022-12-18T09:54:50;9.50;;;6.53;;
12567;SDS011;6349;50.904;6.136;2022-12-18T09:56:54;10.97;;;7.27;;
12567;SDS011;6349;50.904;6.136;2022-12-18T09:58:57;10.03;;;7.70;;
12567;SDS011;6349;50.904;6.136;2022-12-18T10:00:59;10.47;;;7.20;;
12567;SDS011;6349;50.904;6.136;2022-12-18T10:03:08;8.93;;;7.00;;
12567;SDS011;6349;50.904;6.136;2022-12-18T10:05:13;9.67;;;6.77;;
12567;SDS011;6349;50.904;6.136;2022-12-18T10:09:45;10.10;;;7.57;;
12567;SDS011;6349;50.904;6.136;2022-12-18T10:12:25;10.57;;;6.87;;
12567;SDS011;6349;50.904;6.136;2022-12-18T10:14:42;10.27;;;7.60;;
12567;SDS011;6349;50.904;6.136;2022-12-18T10:17:03;9.63;;;7.97;;
12567;SDS011;6349;50.904;6.136;2022-12-18T10:19:18;8.33;;;7.10;;
12567;SDS011;6349;50.904;6.136;2022-12-18T10:22:22;9.40;;;7.20;;
12567;SDS011;6349;50.904;6.136;2022-12-18T10:26:40;9.40;;;6.97;;
12567;SDS011;6349;50.904;6.136;2022-12-18T10:28:41;10.00;;;7.07;;
12567;SDS011;6349;50.904;6.136;2022-12-18T10:30:43;10.83;;;7.00;;
12567;SDS011;6349;50.904;6.136;2022-12-18T10:32:44;9.33;;;7.17;;
12567;SDS011;6349;50.904;6.136;2022-12-18T10:34:49;10.23;;;7.17;;
12567;SDS011;6349;50.904;6.136;2022-12-18T10:36:50;9.17;;;7.33;;
12567;SDS011;6349;50.904;6.136;2022-12-18T10:38:51;10.57;;;7.70;;
12567;SDS011;6349;50.904;6.136;2022-12-18T10:41:24;10.97;;;7.57;;
12567;SDS011;6349;50.904;6.136;2022-12-18T10:43:33;10.07;;;7.63;;
12567;SDS011;6349;50.904;6.136;2022-12-18T10:45:36;10.93;;;7.60;;
12567;SDS011;6349;50.904;6.136;2022-12-18T10:47:36;10.57;;;7.40;;
12567;SDS011;6349;50.904;6.136;2022-12-18T10:49:50;9.07;;;7.40;;
12567;SDS011;6349;50.904;6.136;2022-12-18T10:52:26;10.23;;;7.57;;
12567;SDS011;6349;50.904;6.136;2022-12-18T10:54:18;9.50;;;7.30;;
12567;SDS011;6349;50.904;6.136;2022-12-18T10:56:22;10.87;;;7.23;;
12567;SDS011;6349;50.904;6.136;2022-12-18T10:58:26;10.00;;;7.67;;
12567;SDS011;6349;50.904;6.136;2022-12-18T11:00:29;9.37;;;7.17;;
12567;SDS011;6349;50.904;6.136;2022-12-18T11:02:34;9.80;;;8.07;;
12567;SDS011;6349;50.904;6.136;2022-12-18T11:04:36;11.03;;;7.90;;
12567;SDS011;6349;50.904;6.136;2022-12-18T11:06:53;11.23;;;7.63;;
12567;SDS011;6349;50.904;6.136;2022-12-18T11:08:58;9.37;;;7.73;;
12567;SDS011;6349;50.904;6.136;2022-12-18T11:11:20;12.23;;;7.87;;
12567;SDS011;6349;50.904;6.136;2022-12-18T11:13:23;9.93;;;7.57;;
12567;SDS011;6349;50.904;6.136;2022-12-18T11:15:26;10.70;;;8.10;;
12567;SDS011;6349;50.904;6.136;2022-12-18T11:17:31;10.67;;;8.27;;
12567;SDS011;6349;50.904;6.136;2022-12-18T11:19:36;10.77;;;7.80;;
12567;SDS011;6349;50.904;6.136;2022-12-18T11:21:40;10.87;;;7.87;;
12567;SDS011;6349;50.904;6.136;2022-12-18T11:23:56;10.90;;;7.83;;
12567;SDS011;6349;50.904;6.136;2022-12-18T11:25:58;9.90;;;8.00;;
12567;SDS011;6349;50.904;6.136;2022-12-18T11:28:02;10.53;;;7.60;;
12567;SDS011;6349;50.904;6.136;2022-12-18T11:30:09;9.93;;;7.80;;
12567;SDS011;6349;50.904;6.136;2022-12-18T11:32:24;9.93;;;7.40;;
12567;SDS011;6349;50.904;6.136;2022-12-18T11:34:46;10.00;;;7.80;;
12567;SDS011;6349;50.904;6.136;2022-12-18T11:36:51;10.90;;;7.67;;
12567;SDS011;6349;50.904;6.136;2022-12-18T11:38:53;9.20;;;7.47;;
12567;SDS011;6349;50.904;6.136;2022-12-18T11:43:54;10.83;;;8.17;;
12567;SDS011;6349;50.904;6.136;2022-12-18T11:46:07;9.80;;;7.97;;
12567;SDS011;6349;50.904;6.136;2022-12-18T11:48:44;11.00;;;8.20;;
12567;SDS011;6349;50.904;6.136;2022-12-18T11:50:52;11.80;;;8.43;;
12567;SDS011;6349;50.904;6.136;2022-12-18T11:52:57;10.40;;;7.90;;
12567;SDS011;6349;50.904;6.136;2022-12-18T11:54:58;9.63;;;7.20;;
12567;SDS011;6349;50.904;6.136;2022-12-18T11:57:05;10.43;;;8.27;;
12567;SDS011;6349;50.904;6.136;2022-12-18T11:59:48;10.60;;;7.70;;
12567;SDS011;6349;50.904;6.136;2022-12-18T12:02:11;11.07;;;8.23;;
12567;SDS011;6349;50.904;6.136;2022-12-18T12:04:32;10.07;;;7.73;;
12567;SDS011;6349;50.904;6.136;2022-12-18T12:14:52;11.60;;;8.40;;
12567;SDS011;6349;50.904;6.136;2022-12-18T12:17:10;11.40;;;8.07;;
12567;SDS011;6349;50.904;6.136;2022-12-18T12:19:26;10.93;;;8.10;;
12567;SDS011;6349;50.904;6.136;2022-12-18T12:21:54;10.63;;;8.03;;
12567;SDS011;6349;50.904;6.136;2022-12-18T12:24:22;10.10;;;8.00;;
12567;SDS011;6349;50.904;6.136;2022-12-18T12:29:01;9.13;;;7.97;;
12567;SDS011;6349;50.904;6.136;2022-12-18T12:31:28;10.67;;;7.80;;
12567;SDS011;6349;50.904;6.136;2022-12-18T12:33:49;11.73;;;7.93;;
12567;SDS011;6349;50.904;6.136;2022-12-18T12:36:05;11.30;;;7.73;;
12567;SDS011;6349;50.904;6.136;2022-12-18T12:38:16;10.30;;;7.90;;
12567;SDS011;6349;50.904;6.136;2022-12-18T12:40:22;10.57;;;8.27;;
12567;SDS011;6349;50.904;6.136;2022-12-18T12:42:43;11.27;;;8.50;;
12567;SDS011;6349;50.904;6.136;2022-12-18T12:45:09;9.90;;;7.37;;
12567;SDS011;6349;50.904;6.136;2022-12-18T12:47:20;10.20;;;8.10;;
12567;SDS011;6349;50.904;6.136;2022-12-18T12:49:26;11.87;;;8.50;;
12567;SDS011;6349;50.904;6.136;2022-12-18T12:51:30;10.90;;;8.20;;
12567;SDS011;6349;50.904;6.136;2022-12-18T12:53:36;10.23;;;8.20;;
12567;SDS011;6349;50.904;6.136;2022-12-18T12:55:39;12.90;;;9.40;;
12567;SDS011;6349;50.904;6.136;2022-12-18T12:57:41;10.77;;;8.33;;
12567;SDS011;6349;50.904;6.136;2022-12-18T13:00:19;11.00;;;8.77;;
12567;SDS011;6349;50.904;6.136;2022-12-18T13:02:21;9.60;;;8.20;;
12567;SDS011;6349;50.904;6.136;2022-12-18T13:04:41;12.07;;;8.50;;
12567;SDS011;6349;50.904;6.136;2022-12-18T13:07:06;11.30;;;8.27;;
12567;SDS011;6349;50.904;6.136;2022-12-18T13:09:31;10.53;;;8.23;;
12567;SDS011;6349;50.904;6.136;2022-12-18T13:11:35;10.30;;;8.27;;